Time;durP1;ratioP1;P1;durP2;ratioP2;P2;SDS_P1;SDS_P2;PMS_P1;PMS_P2;Temp;Humidity;BMP_temperature;BMP_pressure;BME280_temperature;BME280_humidity;BME280_pressure;Samples;Min_cycle;Max_cycle;Signal;HPM_P1;HPM_P2
2021/06/25 00:00:49;;;;;;;18.90;17.00;;;;;;;;;;1433751;41;20426;-84
2021/06/25 00:01:51;;;;;;;19.35;17.35;;;;;;;;;;1438211;41;20436;-84
2021/06/25 00:02:53;;;;;;;19.65;17.55;;;;;;;;;;1435097;41;20482;-84
2021/06/25 00:03:56;;;;;;;20.55;18.40;;;;;;;;;;1434962;41;20467;-81
2021/06/25 00:04:58;;;;;;;19.17;17.33;;;;;;;;;;1438081;41;21287;-82
2021/06/25 00:06:01;;;;;;;20.20;18.15;;;;;;;;;;1438247;41;20416;-82
2021/06/25 00:07:06;;;;;;;20.27;18.17;;;;;;;;;;1433953;41;20415;-82
2021/06/25 00:08:09;;;;;;;20.15;18.15;;;;;;;;;;1432416;41;20691;-83
2021/06/25 00:09:11;;;;;;;19.10;17.27;;;;;;;;;;1427055;41;20729;-82
2021/06/25 00:10:13;;;;;;;19.42;17.63;;;;;;;;;;1426045;41;20458;-83
2021/06/25 00:11:15;;;;;;;19.23;17.33;;;;;;;;;;1426453;41;20837;-82
2021/06/25 00:12:17;;;;;;;19.58;17.58;;;;;;;;;;1429887;41;20786;-83
2021/06/25 00:13:19;;;;;;;21.00;18.35;;;;;;;;;;1434256;41;20409;-83
2021/06/25 00:14:22;;;;;;;20.13;18.02;;;;;;;;;;1434335;41;20460;-82
2021/06/25 00:15:24;;;;;;;19.30;17.42;;;;;;;;;;1434413;41;20412;-83
2021/06/25 00:16:26;;;;;;;19.63;17.58;;;;;;;;;;1430258;41;20460;-83
2021/06/25 00:17:27;;;;;;;22.58;18.25;;;;;;;;;;1430621;41;20543;-83
2021/06/25 00:18:29;;;;;;;19.88;17.80;;;;;;;;;;1430889;41;20441;-82
2021/06/25 00:19:31;;;;;;;20.00;17.90;;;;;;;;;;1430851;41;20427;-83
2021/06/25 00:20:32;;;;;;;19.17;17.38;;;;;;;;;;1436044;41;20433;-83
2021/06/25 00:21:34;;;;;;;20.70;18.60;;;;;;;;;;1435426;41;20420;-84
2021/06/25 00:22:36;;;;;;;20.70;18.17;;;;;;;;;;1432028;41;20434;-83
2021/06/25 00:23:38;;;;;;;20.13;18.15;;;;;;;;;;1430944;41;20801;-83
2021/06/25 00:24:40;;;;;;;19.55;17.52;;;;;;;;;;1436475;41;20455;-82
2021/06/25 00:25:43;;;;;;;18.92;17.00;;;;;;;;;;1438771;41;20411;-84
2021/06/25 00:26:45;;;;;;;18.88;16.95;;;;;;;;;;1431116;41;20490;-84
2021/06/25 00:27:47;;;;;;;18.85;17.00;;;;;;;;;;1428759;41;20443;-83
2021/06/25 00:28:48;;;;;;;18.92;16.95;;;;;;;;;;1430469;41;20470;-84
2021/06/25 00:29:50;;;;;;;19.20;17.40;;;;;;;;;;1430288;41;20570;-84
2021/06/25 00:30:53;;;;;;;19.13;17.05;;;;;;;;;;1434850;41;20517;-84
2021/06/25 00:31:55;;;;;;;19.90;17.37;;;;;;;;;;1434175;41;20564;-83
2021/06/25 00:32:57;;;;;;;18.20;16.40;;;;;;;;;;1434384;41;20591;-84
2021/06/25 00:33:59;;;;;;;17.80;16.10;;;;;;;;;;1434093;41;20413;-83
2021/06/25 00:35:01;;;;;;;16.48;14.88;;;;;;;;;;1429716;41;20844;-83
2021/06/25 00:36:03;;;;;;;18.17;16.48;;;;;;;;;;1430900;41;21027;-83
2021/06/25 00:37:05;;;;;;;17.55;15.95;;;;;;;;;;1428086;41;20654;-84
2021/06/25 00:38:07;;;;;;;16.65;14.95;;;;;;;;;;1430525;41;20804;-82
2021/06/25 00:39:08;;;;;;;17.38;15.40;;;;;;;;;;1434392;41;20849;-83
2021/06/25 00:40:13;;;;;;;17.60;15.02;;;;;;;;;;1434176;41;21041;-83
2021/06/25 00:41:15;;;;;;;16.85;15.20;;;;;;;;;;1439118;41;20427;-82
2021/06/25 00:42:16;;;;;;;16.33;14.63;;;;;;;;;;1434312;41;20421;-83
2021/06/25 00:43:18;;;;;;;15.95;13.57;;;;;;;;;;1430550;41;20423;-83
2021/06/25 00:44:23;;;;;;;15.20;13.70;;;;;;;;;;1435032;41;20437;-84
2021/06/25 00:45:25;;;;;;;15.68;14.10;;;;;;;;;;1434962;41;20451;-83
2021/06/25 00:46:30;;;;;;;14.43;12.95;;;;;;;;;;1430896;41;20491;-83
2021/06/25 00:47:32;;;;;;;14.57;13.00;;;;;;;;;;1431717;41;20844;-83
2021/06/25 00:48:33;;;;;;;15.10;12.93;;;;;;;;;;1431368;41;20434;-83
2021/06/25 00:49:37;;;;;;;13.93;12.50;;;;;;;;;;1432381;41;20430;-84
2021/06/25 00:50:39;;;;;;;14.30;12.90;;;;;;;;;;1433716;41;20453;-84
2021/06/25 00:51:42;;;;;;;14.23;12.82;;;;;;;;;;1434201;41;20474;-84
2021/06/25 00:52:44;;;;;;;15.90;13.70;;;;;;;;;;1439112;41;20420;-84
2021/06/25 00:53:46;;;;;;;14.45;13.05;;;;;;;;;;1439987;41;20436;-84
2021/06/25 00:54:49;;;;;;;13.50;12.20;;;;;;;;;;1439677;41;20448;-84
2021/06/25 00:55:50;;;;;;;14.75;13.45;;;;;;;;;;1436072;41;20430;-85
2021/06/25 00:56:52;;;;;;;14.00;12.52;;;;;;;;;;1432654;41;20428;-83
2021/06/25 00:57:54;;;;;;;13.57;12.18;;;;;;;;;;1432600;41;20440;-83
2021/06/25 00:58:56;;;;;;;13.98;12.68;;;;;;;;;;1436485;41;20442;-82
2021/06/25 00:59:58;;;;;;;13.63;12.32;;;;;;;;;;1432613;41;20420;-83
2021/06/25 01:00:59;;;;;;;14.02;12.32;;;;;;;;;;1436630;41;20478;-83
2021/06/25 01:02:01;;;;;;;14.60;13.00;;;;;;;;;;1436364;41;20407;-82
2021/06/25 01:03:03;;;;;;;13.90;12.15;;;;;;;;;;1436690;41;20422;-83
2021/06/25 01:04:05;;;;;;;12.75;11.50;;;;;;;;;;1438749;41;20505;-82
2021/06/25 01:05:09;;;;;;;11.98;10.80;;;;;;;;;;1438975;41;20436;-83
2021/06/25 01:06:11;;;;;;;12.50;11.40;;;;;;;;;;1430247;41;21114;-83
2021/06/25 01:07:12;;;;;;;12.27;11.05;;;;;;;;;;1429658;41;20449;-82
2021/06/25 01:08:14;;;;;;;16.98;12.15;;;;;;;;;;1424759;41;20443;-83
2021/06/25 01:09:22;;;;;;;12.05;10.95;;;;;;;;;;1425331;41;20430;-83
2021/06/25 01:10:24;;;;;;;12.43;11.32;;;;;;;;;;1429049;41;20443;-83
2021/06/25 01:11:30;;;;;;;12.23;11.02;;;;;;;;;;1427912;41;20484;-82
2021/06/25 01:12:33;;;;;;;11.30;10.32;;;;;;;;;;1432263;41;20439;-83
2021/06/25 01:13:38;;;;;;;12.32;11.13;;;;;;;;;;1435513;41;20417;-83
2021/06/25 01:14:40;;;;;;;11.20;10.23;;;;;;;;;;1430574;41;20418;-83
2021/06/25 01:15:41;;;;;;;10.65;9.75;;;;;;;;;;1427143;41;20444;-83
2021/06/25 01:16:43;;;;;;;11.00;10.00;;;;;;;;;;1426871;41;20424;-83
2021/06/25 01:17:45;;;;;;;10.63;9.63;;;;;;;;;;1431164;41;20479;-82
2021/06/25 01:18:47;;;;;;;11.18;10.10;;;;;;;;;;1434540;41;20433;-82
2021/06/25 01:19:49;;;;;;;10.43;9.43;;;;;;;;;;1430078;41;20431;-83
2021/06/25 01:20:54;;;;;;;11.07;10.00;;;;;;;;;;1430193;41;20868;-83
2021/06/25 01:21:56;;;;;;;10.43;9.40;;;;;;;;;;1430329;41;20478;-83
2021/06/25 01:22:58;;;;;;;9.55;8.75;;;;;;;;;;1430904;41;20539;-83
2021/06/25 01:24:00;;;;;;;9.82;8.98;;;;;;;;;;1431071;41;20572;-82
2021/06/25 01:25:03;;;;;;;9.88;8.90;;;;;;;;;;1431864;41;20507;-82
2021/06/25 01:26:06;;;;;;;10.48;9.48;;;;;;;;;;1435218;41;20433;-84
2021/06/25 01:27:07;;;;;;;9.30;8.52;;;;;;;;;;1431079;41;20423;-82
2021/06/25 01:28:11;;;;;;;9.15;7.97;;;;;;;;;;1426934;41;20452;-83
2021/06/25 01:29:13;;;;;;;9.75;8.85;;;;;;;;;;1431658;41;20970;-82
2021/06/25 01:30:20;;;;;;;11.23;9.38;;;;;;;;;;1430971;41;21281;-83
2021/06/25 01:31:22;;;;;;;8.88;8.07;;;;;;;;;;1430254;41;20427;-81
2021/06/25 01:32:24;;;;;;;9.52;8.73;;;;;;;;;;1430117;41;20495;-82
2021/06/25 01:33:27;;;;;;;9.32;8.45;;;;;;;;;;1433612;41;20436;-82
2021/06/25 01:34:29;;;;;;;8.90;8.10;;;;;;;;;;1433783;41;20888;-82
2021/06/25 01:35:31;;;;;;;9.25;8.45;;;;;;;;;;1426872;41;20436;-84
2021/06/25 01:36:32;;;;;;;10.57;8.48;;;;;;;;;;1427108;41;20710;-82
2021/06/25 01:37:34;;;;;;;9.52;8.60;;;;;;;;;;1431508;41;21461;-83
2021/06/25 01:38:38;;;;;;;9.68;8.57;;;;;;;;;;1431374;41;20434;-82
2021/06/25 01:39:40;;;;;;;10.48;8.70;;;;;;;;;;1437173;41;20423;-82
2021/06/25 01:40:44;;;;;;;9.15;7.75;;;;;;;;;;1434828;41;20433;-82
2021/06/25 01:41:45;;;;;;;8.38;7.45;;;;;;;;;;1434742;41;20783;-81
2021/06/25 01:42:47;;;;;;;8.88;7.97;;;;;;;;;;1432407;41;20520;-82
2021/06/25 01:43:50;;;;;;;8.27;7.57;;;;;;;;;;1427546;41;20424;-83
2021/06/25 01:44:53;;;;;;;8.02;7.30;;;;;;;;;;1426783;41;20849;-83
2021/06/25 01:45:55;;;;;;;8.32;7.45;;;;;;;;;;1430177;41;20430;-82
2021/06/25 01:46:57;;;;;;;7.88;7.28;;;;;;;;;;1434445;41;20492;-82
2021/06/25 01:48:00;;;;;;;10.18;7.93;;;;;;;;;;1434607;41;20440;-83
2021/06/25 01:49:02;;;;;;;8.70;7.82;;;;;;;;;;1429813;41;20431;-82
2021/06/25 01:50:10;;;;;;;8.68;7.70;;;;;;;;;;1430258;41;20557;-82
2021/06/25 01:51:12;;;;;;;8.85;7.78;;;;;;;;;;1434595;41;20421;-82
2021/06/25 01:52:18;;;;;;;8.73;7.85;;;;;;;;;;1436709;41;20427;-82
2021/06/25 01:53:19;;;;;;;8.23;7.53;;;;;;;;;;1438122;41;20783;-82
2021/06/25 01:54:21;;;;;;;8.93;8.23;;;;;;;;;;1438450;41;20538;-82
2021/06/25 01:55:24;;;;;;;10.00;8.47;;;;;;;;;;1430030;41;20629;-82
2021/06/25 01:56:25;;;;;;;9.45;8.55;;;;;;;;;;1429809;41;20533;-82
2021/06/25 01:57:29;;;;;;;9.35;8.45;;;;;;;;;;1433712;41;20425;-82
2021/06/25 01:58:32;;;;;;;8.23;7.53;;;;;;;;;;1434331;41;20419;-81
2021/06/25 01:59:34;;;;;;;9.32;8.48;;;;;;;;;;1434146;41;20425;-82
2021/06/25 02:00:38;;;;;;;9.05;8.15;;;;;;;;;;1434101;41;20477;-82
2021/06/25 02:01:40;;;;;;;10.77;8.50;;;;;;;;;;1429844;41;20503;-82
2021/06/25 02:02:42;;;;;;;11.18;9.18;;;;;;;;;;1426346;41;20444;-82
2021/06/25 02:03:47;;;;;;;11.88;9.50;;;;;;;;;;1429884;41;20423;-82
2021/06/25 02:04:49;;;;;;;9.75;8.80;;;;;;;;;;1430108;41;20419;-82
2021/06/25 02:05:51;;;;;;;9.18;8.30;;;;;;;;;;1425997;41;20447;-82
2021/06/25 02:06:55;;;;;;;10.55;9.63;;;;;;;;;;1425803;41;20558;-82
2021/06/25 02:07:56;;;;;;;10.52;8.77;;;;;;;;;;1425926;41;20440;-82
2021/06/25 02:08:58;;;;;;;10.07;9.07;;;;;;;;;;1425770;41;20444;-82
2021/06/25 02:10:00;;;;;;;10.05;9.15;;;;;;;;;;1429756;41;20449;-82
2021/06/25 02:11:02;;;;;;;9.93;9.02;;;;;;;;;;1430365;41;20702;-82
2021/06/25 02:12:05;;;;;;;9.63;8.68;;;;;;;;;;1429712;41;20801;-81
2021/06/25 02:13:08;;;;;;;10.82;9.73;;;;;;;;;;1434116;41;20413;-82
2021/06/25 02:14:09;;;;;;;10.10;9.25;;;;;;;;;;1433936;41;20502;-83
2021/06/25 02:15:11;;;;;;;11.68;9.50;;;;;;;;;;1434595;41;20475;-83
2021/06/25 02:16:14;;;;;;;9.85;8.93;;;;;;;;;;1434067;41;21050;-82
2021/06/25 02:17:16;;;;;;;9.80;8.90;;;;;;;;;;1436766;41;20434;-83
2021/06/25 02:18:19;;;;;;;9.68;8.98;;;;;;;;;;1433893;41;20966;-83
2021/06/25 02:19:20;;;;;;;10.50;9.27;;;;;;;;;;1426507;41;21179;-82
2021/06/25 02:20:22;;;;;;;9.70;8.95;;;;;;;;;;1430021;41;20511;-83
2021/06/25 02:21:23;;;;;;;9.90;9.05;;;;;;;;;;1429465;41;20527;-82
2021/06/25 02:22:25;;;;;;;11.07;9.10;;;;;;;;;;1429961;41;20427;-82
2021/06/25 02:23:27;;;;;;;10.07;9.18;;;;;;;;;;1434057;41;20437;-83
2021/06/25 02:24:29;;;;;;;10.63;9.52;;;;;;;;;;1426226;41;20443;-82
2021/06/25 02:25:30;;;;;;;11.48;9.82;;;;;;;;;;1426145;41;20908;-83
2021/06/25 02:26:32;;;;;;;10.90;10.00;;;;;;;;;;1434006;41;20922;-82
2021/06/25 02:27:34;;;;;;;10.88;9.77;;;;;;;;;;1434573;41;20693;-83
2021/06/25 02:28:35;;;;;;;11.55;9.40;;;;;;;;;;1429905;41;20431;-82
2021/06/25 02:29:37;;;;;;;11.60;10.30;;;;;;;;;;1423835;41;20477;-82
2021/06/25 02:30:39;;;;;;;10.43;9.48;;;;;;;;;;1429250;41;20456;-81
2021/06/25 02:31:41;;;;;;;10.10;9.10;;;;;;;;;;1437839;41;20502;-83
2021/06/25 02:32:45;;;;;;;11.25;10.25;;;;;;;;;;1438390;41;20445;-83
2021/06/25 02:33:46;;;;;;;10.88;9.77;;;;;;;;;;1438821;41;20432;-82
2021/06/25 02:34:48;;;;;;;10.50;9.60;;;;;;;;;;1439291;41;20432;-83
2021/06/25 02:35:50;;;;;;;11.00;9.88;;;;;;;;;;1438249;41;20432;-82
2021/06/25 02:36:52;;;;;;;11.63;10.48;;;;;;;;;;1437730;41;20409;-82
2021/06/25 02:37:56;;;;;;;10.63;9.73;;;;;;;;;;1437857;41;20429;-83
2021/06/25 02:38:58;;;;;;;11.57;10.40;;;;;;;;;;1436485;41;20405;-83
2021/06/25 02:40:00;;;;;;;10.90;9.98;;;;;;;;;;1431043;41;20443;-83
2021/06/25 02:41:02;;;;;;;11.63;10.63;;;;;;;;;;1430824;41;20434;-83
2021/06/25 02:42:04;;;;;;;11.50;10.30;;;;;;;;;;1434299;41;20535;-83
2021/06/25 02:43:06;;;;;;;11.90;10.40;;;;;;;;;;1433061;41;20430;-83
2021/06/25 02:44:08;;;;;;;11.10;10.10;;;;;;;;;;1430650;41;20526;-83
2021/06/25 02:45:10;;;;;;;12.63;10.02;;;;;;;;;;1435476;41;21014;-82
2021/06/25 02:46:11;;;;;;;10.75;9.95;;;;;;;;;;1436624;41;20452;-83
2021/06/25 02:47:13;;;;;;;11.00;9.77;;;;;;;;;;1440802;41;20689;-83
2021/06/25 02:48:15;;;;;;;10.57;9.68;;;;;;;;;;1440633;41;20445;-83
2021/06/25 02:49:16;;;;;;;10.98;10.07;;;;;;;;;;1430470;41;20565;-83
2021/06/25 02:50:18;;;;;;;13.45;11.07;;;;;;;;;;1430182;41;20430;-83
2021/06/25 02:51:20;;;;;;;11.30;10.13;;;;;;;;;;1426298;41;20830;-83
2021/06/25 02:52:23;;;;;;;11.32;10.13;;;;;;;;;;1430299;41;20434;-83
2021/06/25 02:53:25;;;;;;;12.65;10.85;;;;;;;;;;1430368;41;20426;-83
2021/06/25 02:54:27;;;;;;;11.52;10.50;;;;;;;;;;1433645;41;20451;-83
2021/06/25 02:55:28;;;;;;;13.70;10.88;;;;;;;;;;1434114;41;20449;-83
2021/06/25 02:56:30;;;;;;;11.23;10.23;;;;;;;;;;1434394;41;20521;-83
2021/06/25 02:57:32;;;;;;;11.77;10.70;;;;;;;;;;1433867;41;20609;-83
2021/06/25 02:58:34;;;;;;;11.50;10.40;;;;;;;;;;1433830;41;20436;-83
2021/06/25 02:59:35;;;;;;;11.93;10.82;;;;;;;;;;1436089;41;20441;-84
2021/06/25 03:00:37;;;;;;;11.30;10.20;;;;;;;;;;1429859;41;20430;-83
2021/06/25 03:01:38;;;;;;;11.25;10.25;;;;;;;;;;1426125;41;20428;-82
2021/06/25 03:02:44;;;;;;;11.55;10.63;;;;;;;;;;1425919;41;20545;-83
2021/06/25 03:03:46;;;;;;;12.63;9.80;;;;;;;;;;1430409;41;20417;-83
2021/06/25 03:04:47;;;;;;;11.43;10.23;;;;;;;;;;1434613;41;20432;-83
2021/06/25 03:05:50;;;;;;;12.23;11.03;;;;;;;;;;1429694;41;20431;-83
2021/06/25 03:06:52;;;;;;;13.10;11.57;;;;;;;;;;1427030;41;20795;-83
2021/06/25 03:07:53;;;;;;;17.33;10.20;;;;;;;;;;1426184;41;20513;-83
2021/06/25 03:08:55;;;;;;;11.88;10.60;;;;;;;;;;1426289;41;20460;-84
2021/06/25 03:09:57;;;;;;;12.18;11.07;;;;;;;;;;1425347;41;20464;-83
2021/06/25 03:11:02;;;;;;;11.50;10.40;;;;;;;;;;1426159;41;21130;-83
2021/06/25 03:12:04;;;;;;;13.43;11.60;;;;;;;;;;1422201;41;20445;-83
2021/06/25 03:13:05;;;;;;;11.60;10.52;;;;;;;;;;1426455;41;20556;-84
2021/06/25 03:14:07;;;;;;;11.43;10.32;;;;;;;;;;1433658;41;20742;-84
2021/06/25 03:15:09;;;;;;;13.05;11.40;;;;;;;;;;1434578;41;20472;-83
2021/06/25 03:16:11;;;;;;;12.15;11.02;;;;;;;;;;1434490;41;20518;-83
2021/06/25 03:17:13;;;;;;;13.32;11.27;;;;;;;;;;1434777;41;20512;-83
2021/06/25 03:18:16;;;;;;;13.20;12.00;;;;;;;;;;1434661;41;20621;-83
2021/06/25 03:19:18;;;;;;;13.18;11.98;;;;;;;;;;1436497;41;20427;-84
2021/06/25 03:20:19;;;;;;;12.48;11.32;;;;;;;;;;1434530;41;20421;-84
2021/06/25 03:21:21;;;;;;;12.18;11.07;;;;;;;;;;1434431;41;20441;-83
2021/06/25 03:22:22;;;;;;;13.43;12.23;;;;;;;;;;1438734;41;20720;-83
2021/06/25 03:23:24;;;;;;;13.05;11.73;;;;;;;;;;1439663;41;20445;-83
2021/06/25 03:24:26;;;;;;;14.27;12.80;;;;;;;;;;1439000;41;21080;-84
2021/06/25 03:25:27;;;;;;;12.63;11.43;;;;;;;;;;1438681;41;20462;-84
2021/06/25 03:26:29;;;;;;;13.90;12.48;;;;;;;;;;1438170;41;20486;-83
2021/06/25 03:27:31;;;;;;;13.77;12.48;;;;;;;;;;1436924;41;20405;-83
2021/06/25 03:28:32;;;;;;;12.98;11.68;;;;;;;;;;1430567;41;20781;-83
2021/06/25 03:29:34;;;;;;;15.30;12.80;;;;;;;;;;1426997;41;20428;-82
2021/06/25 03:30:38;;;;;;;15.10;12.98;;;;;;;;;;1427482;41;20967;-82
2021/06/25 03:31:40;;;;;;;15.00;12.93;;;;;;;;;;1431725;41;20411;-83
2021/06/25 03:32:42;;;;;;;14.07;12.70;;;;;;;;;;1428829;41;20492;-83
2021/06/25 03:33:44;;;;;;;14.57;12.40;;;;;;;;;;1426058;41;20430;-83
2021/06/25 03:34:46;;;;;;;14.82;13.35;;;;;;;;;;1430363;41;20448;-83
2021/06/25 03:35:47;;;;;;;15.18;13.18;;;;;;;;;;1434718;41;20441;-83
2021/06/25 03:36:49;;;;;;;14.32;12.82;;;;;;;;;;1438646;41;20510;-82
2021/06/25 03:37:51;;;;;;;14.77;13.32;;;;;;;;;;1438957;41;20413;-82
2021/06/25 03:38:52;;;;;;;15.60;13.60;;;;;;;;;;1439083;41;20433;-83
2021/06/25 03:39:54;;;;;;;14.55;13.18;;;;;;;;;;1439537;41;20431;-83
2021/06/25 03:40:56;;;;;;;16.08;14.38;;;;;;;;;;1440003;41;20994;-83
2021/06/25 03:41:57;;;;;;;14.77;13.38;;;;;;;;;;1439432;41;20436;-83
2021/06/25 03:42:59;;;;;;;20.67;14.80;;;;;;;;;;1439077;41;20444;-84
2021/06/25 03:44:01;;;;;;;17.17;13.68;;;;;;;;;;1434100;41;20439;-82
2021/06/25 03:45:04;;;;;;;17.02;15.02;;;;;;;;;;1433958;41;20873;-83
2021/06/25 03:46:06;;;;;;;16.20;14.32;;;;;;;;;;1434769;41;20427;-82
2021/06/25 03:47:08;;;;;;;16.45;14.85;;;;;;;;;;1439790;41;20420;-83
2021/06/25 03:48:10;;;;;;;15.52;13.93;;;;;;;;;;1440154;41;20416;-82
2021/06/25 03:49:11;;;;;;;16.40;14.60;;;;;;;;;;1439875;41;20417;-83
2021/06/25 03:50:14;;;;;;;18.27;14.88;;;;;;;;;;1439073;41;20428;-82
2021/06/25 03:51:16;;;;;;;17.65;15.30;;;;;;;;;;1434374;41;20485;-83
2021/06/25 03:52:21;;;;;;;16.77;15.07;;;;;;;;;;1434580;41;20414;-83
2021/06/25 03:53:23;;;;;;;17.00;15.20;;;;;;;;;;1437524;41;20417;-82
2021/06/25 03:54:24;;;;;;;17.00;15.30;;;;;;;;;;1432389;41;20422;-82
2021/06/25 03:55:26;;;;;;;18.55;15.30;;;;;;;;;;1432273;41;20423;-82
2021/06/25 03:56:28;;;;;;;17.42;15.43;;;;;;;;;;1436160;41;20425;-83
2021/06/25 03:57:30;;;;;;;19.02;15.38;;;;;;;;;;1431980;41;20848;-84
2021/06/25 03:58:32;;;;;;;15.90;14.18;;;;;;;;;;1427487;41;20463;-83
2021/06/25 03:59:33;;;;;;;19.00;16.15;;;;;;;;;;1431145;41;20434;-83
2021/06/25 04:00:35;;;;;;;20.95;16.25;;;;;;;;;;1435681;41;20472;-83
2021/06/25 04:01:37;;;;;;;16.90;15.20;;;;;;;;;;1434759;41;20425;-82
2021/06/25 04:02:39;;;;;;;19.27;16.45;;;;;;;;;;1435036;41;20464;-82
2021/06/25 04:03:40;;;;;;;18.65;16.13;;;;;;;;;;1434896;41;20413;-82
2021/06/25 04:04:42;;;;;;;19.80;16.05;;;;;;;;;;1435243;41;20417;-82
2021/06/25 04:05:44;;;;;;;18.80;16.52;;;;;;;;;;1434598;41;20441;-82
2021/06/25 04:06:46;;;;;;;19.92;17.52;;;;;;;;;;1434021;41;20543;-83
2021/06/25 04:07:47;;;;;;;19.05;16.48;;;;;;;;;;1431017;41;20441;-82
2021/06/25 04:08:50;;;;;;;21.85;17.48;;;;;;;;;;1427201;41;20785;-82
2021/06/25 04:09:51;;;;;;;20.52;18.05;;;;;;;;;;1431040;41;20939;-82
2021/06/25 04:10:53;;;;;;;20.80;18.60;;;;;;;;;;1439790;41;20475;-82
2021/06/25 04:11:54;;;;;;;20.60;18.40;;;;;;;;;;1435017;41;20481;-83
2021/06/25 04:12:56;;;;;;;20.88;17.80;;;;;;;;;;1428440;41;20695;-83
2021/06/25 04:13:58;;;;;;;20.73;18.30;;;;;;;;;;1423307;41;20429;-83
2021/06/25 04:15:00;;;;;;;20.65;18.38;;;;;;;;;;1419634;41;20520;-83
2021/06/25 04:16:02;;;;;;;23.67;18.45;;;;;;;;;;1427899;41;20427;-82
2021/06/25 04:17:04;;;;;;;20.98;18.35;;;;;;;;;;1431595;41;20555;-83
2021/06/25 04:18:06;;;;;;;22.00;17.85;;;;;;;;;;1431053;41;20667;-83
2021/06/25 04:19:07;;;;;;;21.55;18.02;;;;;;;;;;1435702;41;20421;-83
2021/06/25 04:20:10;;;;;;;25.35;19.42;;;;;;;;;;1435917;41;20468;-82
2021/06/25 04:21:12;;;;;;;22.23;19.25;;;;;;;;;;1434813;41;20496;-82
2021/06/25 04:22:13;;;;;;;27.17;20.10;;;;;;;;;;1435377;41;20468;-83
2021/06/25 04:23:17;;;;;;;22.50;19.85;;;;;;;;;;1435174;41;20962;-82
2021/06/25 04:24:19;;;;;;;23.85;20.77;;;;;;;;;;1435507;41;20510;-82
2021/06/25 04:25:20;;;;;;;27.73;19.48;;;;;;;;;;1435408;41;20542;-83
2021/06/25 04:26:23;;;;;;;26.17;20.65;;;;;;;;;;1430254;41;20456;-83
2021/06/25 04:27:25;;;;;;;28.42;20.63;;;;;;;;;;1431216;41;20434;-82
2021/06/25 04:28:28;;;;;;;25.40;20.88;;;;;;;;;;1430589;41;20418;-83
2021/06/25 04:29:31;;;;;;;24.55;21.23;;;;;;;;;;1426523;41;20436;-83
2021/06/25 04:30:34;;;;;;;27.20;21.58;;;;;;;;;;1427078;41;20468;-82
2021/06/25 04:31:36;;;;;;;25.95;20.20;;;;;;;;;;1426489;41;20519;-81
2021/06/25 04:32:40;;;;;;;23.73;20.60;;;;;;;;;;1427436;41;21117;-83
2021/06/25 04:33:42;;;;;;;24.45;21.08;;;;;;;;;;1425854;41;20529;-83
2021/06/25 04:34:43;;;;;;;27.25;21.80;;;;;;;;;;1426543;41;20986;-83
2021/06/25 04:35:48;;;;;;;24.00;20.33;;;;;;;;;;1435379;41;20437;-83
2021/06/25 04:36:50;;;;;;;24.50;20.88;;;;;;;;;;1438261;41;20513;-82
2021/06/25 04:37:51;;;;;;;25.00;20.80;;;;;;;;;;1438365;41;20817;-83
2021/06/25 04:38:53;;;;;;;26.10;22.25;;;;;;;;;;1438079;41;20471;-82
2021/06/25 04:39:55;;;;;;;26.65;21.55;;;;;;;;;;1437995;41;20435;-83
2021/06/25 04:40:57;;;;;;;28.83;22.48;;;;;;;;;;1430592;41;20446;-83
2021/06/25 04:41:58;;;;;;;27.58;22.25;;;;;;;;;;1429988;41;20925;-83
2021/06/25 04:43:00;;;;;;;30.05;23.80;;;;;;;;;;1435480;41;20429;-81
2021/06/25 04:44:02;;;;;;;27.88;21.83;;;;;;;;;;1434491;41;20704;-83
2021/06/25 04:45:05;;;;;;;27.67;23.00;;;;;;;;;;1433943;41;20437;-82
2021/06/25 04:46:06;;;;;;;29.85;23.52;;;;;;;;;;1429564;41;20434;-83
2021/06/25 04:47:08;;;;;;;31.15;22.45;;;;;;;;;;1430352;41;20418;-83
2021/06/25 04:48:13;;;;;;;30.58;23.55;;;;;;;;;;1434283;41;20488;-82
2021/06/25 04:49:15;;;;;;;32.28;25.27;;;;;;;;;;1435432;41;20800;-82
2021/06/25 04:50:16;;;;;;;30.67;24.63;;;;;;;;;;1430425;41;20869;-83
2021/06/25 04:51:18;;;;;;;30.73;24.80;;;;;;;;;;1426654;41;20688;-83
2021/06/25 04:52:19;;;;;;;31.23;24.58;;;;;;;;;;1431732;41;20417;-82
2021/06/25 04:53:21;;;;;;;33.53;25.00;;;;;;;;;;1434971;41;20421;-83
2021/06/25 04:54:23;;;;;;;30.80;24.37;;;;;;;;;;1439006;41;20450;-83
2021/06/25 04:55:25;;;;;;;31.05;24.58;;;;;;;;;;1434492;41;20443;-83
2021/06/25 04:56:26;;;;;;;31.90;25.67;;;;;;;;;;1433963;41;20476;-83
2021/06/25 04:57:28;;;;;;;35.50;25.42;;;;;;;;;;1433406;41;21143;-83
2021/06/25 04:58:31;;;;;;;31.40;24.95;;;;;;;;;;1429354;41;20446;-82
2021/06/25 04:59:34;;;;;;;31.55;24.90;;;;;;;;;;1431013;41;20570;-83
2021/06/25 05:00:37;;;;;;;31.38;25.48;;;;;;;;;;1436329;41;20441;-82
2021/06/25 05:01:38;;;;;;;38.33;26.38;;;;;;;;;;1437895;41;20424;-82
2021/06/25 05:02:40;;;;;;;35.13;25.52;;;;;;;;;;1434029;41;20422;-83
2021/06/25 05:03:42;;;;;;;33.05;25.23;;;;;;;;;;1435385;41;20423;-84
2021/06/25 05:04:44;;;;;;;35.58;26.17;;;;;;;;;;1435213;41;20460;-83
2021/06/25 05:05:46;;;;;;;33.85;26.13;;;;;;;;;;1435787;41;20431;-83
2021/06/25 05:06:50;;;;;;;35.30;27.02;;;;;;;;;;1439484;41;20448;-82
2021/06/25 05:07:52;;;;;;;34.83;26.10;;;;;;;;;;1438838;41;20452;-82
2021/06/25 05:08:53;;;;;;;31.77;26.27;;;;;;;;;;1438775;41;20423;-83
2021/06/25 05:09:55;;;;;;;35.40;26.05;;;;;;;;;;1437384;41;20421;-82
2021/06/25 05:10:57;;;;;;;34.17;27.20;;;;;;;;;;1431633;41;20902;-83
2021/06/25 05:11:59;;;;;;;37.30;25.90;;;;;;;;;;1431538;41;20431;-82
2021/06/25 05:13:01;;;;;;;35.78;27.10;;;;;;;;;;1435832;41;20470;-83
2021/06/25 05:14:03;;;;;;;35.15;26.73;;;;;;;;;;1436968;41;20405;-82
2021/06/25 05:15:06;;;;;;;33.97;26.63;;;;;;;;;;1436087;41;20863;-83
2021/06/25 05:16:08;;;;;;;33.08;26.33;;;;;;;;;;1430893;41;20856;-83
2021/06/25 05:17:10;;;;;;;36.95;27.33;;;;;;;;;;1430671;41;20959;-83
2021/06/25 05:18:20;;;;;;;35.15;27.05;;;;;;;;;;1435178;41;20745;-83
2021/06/25 05:19:41;;;;;;;34.88;27.17;;;;;;;;;;1434456;41;20703;-82
2021/06/25 05:20:45;;;;;;;36.10;26.58;;;;;;;;;;1435498;41;20521;-83
2021/06/25 05:22:31;;;;;;;40.13;27.75;;;;;;;;;;1431410;41;20744;-81
2021/06/25 05:23:34;;;;;;;38.83;26.83;;;;;;;;;;1424725;41;20537;-83
2021/06/25 05:24:35;;;;;;;40.17;26.45;;;;;;;;;;1429627;41;20467;-83
2021/06/25 05:25:48;;;;;;;38.63;27.15;;;;;;;;;;1434980;41;20558;-84
2021/06/25 05:26:50;;;;;;;41.15;27.40;;;;;;;;;;1434625;41;20497;-82
2021/06/25 05:27:51;;;;;;;38.08;26.27;;;;;;;;;;1427800;41;20490;-82
2021/06/25 05:28:53;;;;;;;40.10;27.92;;;;;;;;;;1430137;41;20419;-82
2021/06/25 05:29:55;;;;;;;40.53;27.98;;;;;;;;;;1431197;41;20478;-83
2021/06/25 05:30:56;;;;;;;39.20;26.05;;;;;;;;;;1434674;41;20435;-83
2021/06/25 05:31:59;;;;;;;41.92;26.45;;;;;;;;;;1430182;41;20468;-83
2021/06/25 05:33:02;;;;;;;40.03;26.77;;;;;;;;;;1430052;41;20427;-83
2021/06/25 05:34:04;;;;;;;40.83;27.27;;;;;;;;;;1429827;41;21142;-82
2021/06/25 05:35:06;;;;;;;42.80;27.90;;;;;;;;;;1430605;41;20430;-82
2021/06/25 05:36:08;;;;;;;39.17;26.83;;;;;;;;;;1429110;41;20426;-83
2021/06/25 05:37:10;;;;;;;38.00;26.40;;;;;;;;;;1430169;41;20792;-82
2021/06/25 05:38:14;;;;;;;38.77;26.27;;;;;;;;;;1433915;41;20501;-83
2021/06/25 05:39:15;;;;;;;36.60;26.42;;;;;;;;;;1429818;41;20952;-83
2021/06/25 05:40:17;;;;;;;42.38;27.92;;;;;;;;;;1429957;41;20530;-83
2021/06/25 05:41:19;;;;;;;37.40;27.08;;;;;;;;;;1433912;41;21335;-83
2021/06/25 05:42:20;;;;;;;40.70;26.17;;;;;;;;;;1434849;41;20440;-82
2021/06/25 05:43:23;;;;;;;39.78;27.63;;;;;;;;;;1433561;41;20931;-83
2021/06/25 05:44:25;;;;;;;39.50;26.98;;;;;;;;;;1435423;41;20493;-82
2021/06/25 05:45:26;;;;;;;39.90;26.38;;;;;;;;;;1427773;41;20469;-83
2021/06/25 05:46:28;;;;;;;37.15;26.98;;;;;;;;;;1426813;41;20462;-82
2021/06/25 05:47:29;;;;;;;35.75;25.88;;;;;;;;;;1437203;41;20428;-81
2021/06/25 05:48:31;;;;;;;34.45;26.00;;;;;;;;;;1435366;41;20468;-82
2021/06/25 05:49:33;;;;;;;34.92;26.10;;;;;;;;;;1438795;41;20420;-82
2021/06/25 05:50:35;;;;;;;35.90;25.27;;;;;;;;;;1435295;41;20433;-82
2021/06/25 05:51:36;;;;;;;36.65;25.85;;;;;;;;;;1435358;41;20843;-82
2021/06/25 05:52:38;;;;;;;34.50;24.70;;;;;;;;;;1435869;41;20428;-83
2021/06/25 05:53:40;;;;;;;40.15;24.75;;;;;;;;;;1436205;41;20440;-87
2021/06/25 05:54:42;;;;;;;36.33;24.52;;;;;;;;;;1429825;41;20420;-85
2021/06/25 05:55:44;;;;;;;35.67;25.73;;;;;;;;;;1424641;41;20418;-86
2021/06/25 05:56:45;;;;;;;36.42;24.55;;;;;;;;;;1430952;41;20494;-88
2021/06/25 05:57:47;;;;;;;34.70;25.10;;;;;;;;;;1434597;41;20552;-86
2021/06/25 05:58:50;;;;;;;35.67;26.08;;;;;;;;;;1435165;41;20421;-87
2021/06/25 05:59:52;;;;;;;30.48;23.52;;;;;;;;;;1431638;41;20972;-88
2021/06/25 06:00:54;;;;;;;34.40;24.65;;;;;;;;;;1431980;41;20426;-90
2021/06/25 06:01:57;;;;;;;33.92;23.83;;;;;;;;;;1431591;41;20524;-89
2021/06/25 06:03:01;;;;;;;29.70;23.80;;;;;;;;;;1426563;41;20417;-85
2021/06/25 06:04:12;;;;;;;34.92;23.85;;;;;;;;;;1428357;41;20537;-89
2021/06/25 06:05:15;;;;;;;34.47;24.30;;;;;;;;;;1427708;41;20431;-86